sensor_id;sensor_type;location;lat;lon;timestamp;P1;durP1;ratioP1;P2;durP2;ratioP2
54458;SDS011;40368;49.350;8.152;2022-08-19T00:01:44;119;;;181;;
54458;SDS011;40368;49.350;8.152;2022-08-19T00:03:34;113;;;139;;
54458;SDS011;40368;49.350;8.152;2022-08-19T00:04:49;114;;;156;;
54458;SDS011;40368;49.350;8.152;2022-08-19T00:06:41;120;;;147;;
54458;SDS011;40368;49.350;8.152;2022-08-19T00:08:31;121;;;145;;
54458;SDS011;40368;49.350;8.152;2022-08-19T00:09:45;115;;;155;;
54458;SDS011;40368;49.350;8.152;2022-08-19T00:11:37;122;;;195;;
54458;SDS011;40368;49.350;8.152;2022-08-19T00:12:50;114;;;137;;
54458;SDS011;40368;49.350;8.152;2022-08-19T00:14:42;121;;;153;;
54458;SDS011;40368;49.350;8.152;2022-08-19T00:16:33;119;;;162;;
54458;SDS011;40368;49.350;8.152;2022-08-19T00:17:47;118;;;144;;
54458;SDS011;40368;49.350;8.152;2022-08-19T00:19:38;110;;;152;;
54458;SDS011;40368;49.350;8.152;2022-08-19T00:20:52;118;;;155;;
54458;SDS011;40368;49.350;8.152;2022-08-19T00:22:44;119;;;142;;
54458;SDS011;40368;49.350;8.152;2022-08-19T00:24:35;119;;;150;;
54458;SDS011;40368;49.350;8.152;2022-08-19T00:25:49;117;;;137;;
54458;SDS011;40368;49.350;8.152;2022-08-19T00:27:40;113;;;139;;
54458;SDS011;40368;49.350;8.152;2022-08-19T00:29:31;118;;;150;;
54458;SDS011;40368;49.350;8.152;2022-08-19T00:30:45;124;;;151;;
54458;SDS011;40368;49.350;8.152;2022-08-19T00:31:22;120;;;164;;
54458;SDS011;40368;49.350;8.152;2022-08-19T00:32:36;125;;;153;;
54458;SDS011;40368;49.350;8.152;2022-08-19T00:33:50;113;;;174;;
54458;SDS011;40368;49.350;8.152;2022-08-19T00:35:46;122;;;183;;
54458;SDS011;40368;49.350;8.152;2022-08-19T00:38:43;119;;;141;;
54458;SDS011;40368;49.350;8.152;2022-08-19T00:40:34;119;;;154;;
54458;SDS011;40368;49.350;8.152;2022-08-19T00:41:49;116;;;138;;
54458;SDS011;40368;49.350;8.152;2022-08-19T00:43:39;125;;;156;;
54458;SDS011;40368;49.350;8.152;2022-08-19T00:45:30;127;;;158;;
54458;SDS011;40368;49.350;8.152;2022-08-19T00:46:46;124;;;158;;
54458;SDS011;40368;49.350;8.152;2022-08-19T00:48:36;130;;;191;;
54458;SDS011;40368;49.350;8.152;2022-08-19T00:49:51;129;;;162;;
54458;SDS011;40368;49.350;8.152;2022-08-19T00:51:41;122;;;138;;
54458;SDS011;40368;49.350;8.152;2022-08-19T00:53:32;123;;;158;;
54458;SDS011;40368;49.350;8.152;2022-08-19T00:54:47;123;;;153;;
54458;SDS011;40368;49.350;8.152;2022-08-19T00:56:38;121;;;176;;
54458;SDS011;40368;49.350;8.152;2022-08-19T00:57:53;123;;;158;;
54458;SDS011;40368;49.350;8.152;2022-08-19T00:59:44;126;;;177;;
54458;SDS011;40368;49.350;8.152;2022-08-19T01:01:34;121;;;181;;
54458;SDS011;40368;49.350;8.152;2022-08-19T01:02:48;126;;;154;;
54458;SDS011;40368;49.350;8.152;2022-08-19T01:04:39;128;;;147;;
54458;SDS011;40368;49.350;8.152;2022-08-19T01:06:31;133;;;155;;
54458;SDS011;40368;49.350;8.152;2022-08-19T01:07:45;127;;;144;;
54458;SDS011;40368;49.350;8.152;2022-08-19T01:09:36;126;;;154;;
54458;SDS011;40368;49.350;8.152;2022-08-19T01:10:52;126;;;187;;
54458;SDS011;40368;49.350;8.152;2022-08-19T01:12:41;129;;;164;;
54458;SDS011;40368;49.350;8.152;2022-08-19T01:14:32;132;;;156;;
54458;SDS011;40368;49.350;8.152;2022-08-19T01:15:50;127;;;189;;
54458;SDS011;40368;49.350;8.152;2022-08-19T01:17:38;129;;;176;;
54458;SDS011;40368;49.350;8.152;2022-08-19T01:18:52;122;;;152;;
54458;SDS011;40368;49.350;8.152;2022-08-19T01:20:43;121;;;150;;
54458;SDS011;40368;49.350;8.152;2022-08-19T01:22:34;126;;;153;;
54458;SDS011;40368;49.350;8.152;2022-08-19T01:23:48;131;;;161;;
54458;SDS011;40368;49.350;8.152;2022-08-19T01:25:41;115;;;136;;
54458;SDS011;40368;49.350;8.152;2022-08-19T01:27:36;128;;;145;;
54458;SDS011;40368;49.350;8.152;2022-08-19T01:28:46;119;;;178;;
54458;SDS011;40368;49.350;8.152;2022-08-19T01:30:36;132;;;158;;
54458;SDS011;40368;49.350;8.152;2022-08-19T01:31:50;116;;;165;;
54458;SDS011;40368;49.350;8.152;2022-08-19T01:33:42;125;;;160;;
54458;SDS011;40368;49.350;8.152;2022-08-19T01:35:33;129;;;164;;
54458;SDS011;40368;49.350;8.152;2022-08-19T01:36:39;127;;;151;;
54458;SDS011;40368;49.350;8.152;2022-08-19T01:38:30;123;;;162;;
54458;SDS011;40368;49.350;8.152;2022-08-19T01:39:44;117;;;136;;
54458;SDS011;40368;49.350;8.152;2022-08-19T01:41:35;133;;;174;;
54458;SDS011;40368;49.350;8.152;2022-08-19T01:42:49;127;;;157;;
54458;SDS011;40368;49.350;8.152;2022-08-19T01:44:40;130;;;171;;
54458;SDS011;40368;49.350;8.152;2022-08-19T01:46:32;133;;;190;;
54458;SDS011;40368;49.350;8.152;2022-08-19T01:47:46;129;;;152;;
54458;SDS011;40368;49.350;8.152;2022-08-19T01:49:37;128;;;157;;
54458;SDS011;40368;49.350;8.152;2022-08-19T01:50:51;120;;;155;;
54458;SDS011;40368;49.350;8.152;2022-08-19T01:52:42;123;;;143;;
54458;SDS011;40368;49.350;8.152;2022-08-19T01:54:33;124;;;152;;
54458;SDS011;40368;49.350;8.152;2022-08-19T01:55:47;133;;;167;;
54458;SDS011;40368;49.350;8.152;2022-08-19T01:57:39;126;;;164;;
54458;SDS011;40368;49.350;8.152;2022-08-19T01:59:30;130;;;157;;
54458;SDS011;40368;49.350;8.152;2022-08-19T02:00:44;138;;;200;;
54458;SDS011;40368;49.350;8.152;2022-08-19T02:02:35;130;;;188;;
54458;SDS011;40368;49.350;8.152;2022-08-19T02:03:49;133;;;161;;
54458;SDS011;40368;49.350;8.152;2022-08-19T02:05:41;136;;;174;;
54458;SDS011;40368;49.350;8.152;2022-08-19T02:07:32;124;;;143;;
54458;SDS011;40368;49.350;8.152;2022-08-19T02:08:46;123;;;161;;
54458;SDS011;40368;49.350;8.152;2022-08-19T02:10:38;125;;;189;;
54458;SDS011;40368;49.350;8.152;2022-08-19T02:11:51;132;;;179;;
54458;SDS011;40368;49.350;8.152;2022-08-19T02:13:42;121;;;142;;
54458;SDS011;40368;49.350;8.152;2022-08-19T02:15:33;131;;;153;;
54458;SDS011;40368;49.350;8.152;2022-08-19T02:16:48;126;;;149;;
54458;SDS011;40368;49.350;8.152;2022-08-19T02:18:39;126;;;168;;
54458;SDS011;40368;49.350;8.152;2022-08-19T02:20:30;123;;;164;;
54458;SDS011;40368;49.350;8.152;2022-08-19T02:21:44;133;;;157;;
54458;SDS011;40368;49.350;8.152;2022-08-19T02:23:35;131;;;164;;
54458;SDS011;40368;49.350;8.152;2022-08-19T02:24:49;131;;;166;;
54458;SDS011;40368;49.350;8.152;2022-08-19T02:26:40;138;;;171;;
54458;SDS011;40368;49.350;8.152;2022-08-19T02:28:32;133;;;178;;
54458;SDS011;40368;49.350;8.152;2022-08-19T02:29:46;136;;;183;;
54458;SDS011;40368;49.350;8.152;2022-08-19T02:31:37;143;;;165;;
54458;SDS011;40368;49.350;8.152;2022-08-19T02:32:51;129;;;166;;
54458;SDS011;40368;49.350;8.152;2022-08-19T02:34:42;138;;;195;;
54458;SDS011;40368;49.350;8.152;2022-08-19T02:36:34;129;;;148;;
54458;SDS011;40368;49.350;8.152;2022-08-19T02:37:39;131;;;153;;
54458;SDS011;40368;49.350;8.152;2022-08-19T02:39:31;133;;;156;;
54458;SDS011;40368;49.350;8.152;2022-08-19T02:40:48;134;;;165;;
54458;SDS011;40368;49.350;8.152;2022-08-19T02:42:36;139;;;185;;
54458;SDS011;40368;49.350;8.152;2022-08-19T02:43:50;129;;;160;;
54458;SDS011;40368;49.350;8.152;2022-08-19T02:45:41;135;;;151;;
54458;SDS011;40368;49.350;8.152;2022-08-19T02:47:33;133;;;175;;
54458;SDS011;40368;49.350;8.152;2022-08-19T02:48:47;121;;;195;;
54458;SDS011;40368;49.350;8.152;2022-08-19T02:50:38;133;;;170;;
54458;SDS011;40368;49.350;8.152;2022-08-19T02:51:52;126;;;145;;
54458;SDS011;40368;49.350;8.152;2022-08-19T02:53:43;118;;;144;;
54458;SDS011;40368;49.350;8.152;2022-08-19T02:55:34;131;;;164;;
54458;SDS011;40368;49.350;8.152;2022-08-19T02:56:48;128;;;153;;
54458;SDS011;40368;49.350;8.152;2022-08-19T02:58:40;132;;;160;;
54458;SDS011;40368;49.350;8.152;2022-08-19T03:00:31;126;;;145;;
54458;SDS011;40368;49.350;8.152;2022-08-19T03:01:45;124;;;156;;
54458;SDS011;40368;49.350;8.152;2022-08-19T03:03:36;133;;;187;;
54458;SDS011;40368;49.350;8.152;2022-08-19T03:04:50;129;;;150;;
54458;SDS011;40368;49.350;8.152;2022-08-19T03:06:44;133;;;148;;
54458;SDS011;40368;49.350;8.152;2022-08-19T03:08:33;123;;;138;;
54458;SDS011;40368;49.350;8.152;2022-08-19T03:09:47;132;;;170;;
54458;SDS011;40368;49.350;8.152;2022-08-19T03:11:38;134;;;156;;
54458;SDS011;40368;49.350;8.152;2022-08-19T03:12:52;132;;;178;;
54458;SDS011;40368;49.350;8.152;2022-08-19T03:14:43;129;;;145;;
54458;SDS011;40368;49.350;8.152;2022-08-19T03:16:44;131;;;168;;
54458;SDS011;40368;49.350;8.152;2022-08-19T03:17:48;120;;;141;;
54458;SDS011;40368;49.350;8.152;2022-08-19T03:19:40;129;;;153;;
54458;SDS011;40368;49.350;8.152;2022-08-19T03:21:31;124;;;166;;
54458;SDS011;40368;49.350;8.152;2022-08-19T03:22:45;129;;;175;;
54458;SDS011;40368;49.350;8.152;2022-08-19T03:24:36;125;;;140;;
54458;SDS011;40368;49.350;8.152;2022-08-19T03:25:51;125;;;150;;
54458;SDS011;40368;49.350;8.152;2022-08-19T03:27:41;126;;;149;;
54458;SDS011;40368;49.350;8.152;2022-08-19T03:29:33;125;;;140;;
54458;SDS011;40368;49.350;8.152;2022-08-19T03:30:55;127;;;158;;
54458;SDS011;40368;49.350;8.152;2022-08-19T03:32:39;125;;;155;;
54458;SDS011;40368;49.350;8.152;2022-08-19T03:33:52;128;;;153;;
54458;SDS011;40368;49.350;8.152;2022-08-19T03:35:43;127;;;146;;
54458;SDS011;40368;49.350;8.152;2022-08-19T03:37:26;120;;;160;;
54458;SDS011;40368;49.350;8.152;2022-08-19T03:38:42;125;;;164;;
54458;SDS011;40368;49.350;8.152;2022-08-19T03:40:32;116;;;166;;
54458;SDS011;40368;49.350;8.152;2022-08-19T03:41:46;124;;;197;;
54458;SDS011;40368;49.350;8.152;2022-08-19T03:43:37;111;;;133;;
54458;SDS011;40368;49.350;8.152;2022-08-19T03:44:51;120;;;134;;
54458;SDS011;40368;49.350;8.152;2022-08-19T03:46:42;115;;;129;;
54458;SDS011;40368;49.350;8.152;2022-08-19T03:48:34;127;;;168;;
54458;SDS011;40368;49.350;8.152;2022-08-19T03:49:47;120;;;146;;
54458;SDS011;40368;49.350;8.152;2022-08-19T03:51:39;124;;;142;;
54458;SDS011;40368;49.350;8.152;2022-08-19T03:52:53;117;;;131;;
54458;SDS011;40368;49.350;8.152;2022-08-19T03:54:44;119;;;153;;
54458;SDS011;40368;49.350;8.152;2022-08-19T03:56:37;129;;;171;;
54458;SDS011;40368;49.350;8.152;2022-08-19T03:57:49;118;;;154;;
54458;SDS011;40368;49.350;8.152;2022-08-19T03:59:40;120;;;136;;
54458;SDS011;40368;49.350;8.152;2022-08-19T04:01:32;119;;;155;;
54458;SDS011;40368;49.350;8.152;2022-08-19T04:02:46;121;;;148;;
54458;SDS011;40368;49.350;8.152;2022-08-19T04:04:38;123;;;159;;
54458;SDS011;40368;49.350;8.152;2022-08-19T04:05:51;117;;;142;;
54458;SDS011;40368;49.350;8.152;2022-08-19T04:07:42;125;;;163;;
54458;SDS011;40368;49.350;8.152;2022-08-19T04:09:34;123;;;144;;
54458;SDS011;40368;49.350;8.152;2022-08-19T04:10:48;118;;;141;;
54458;SDS011;40368;49.350;8.152;2022-08-19T04:12:39;120;;;152;;
54458;SDS011;40368;49.350;8.152;2022-08-19T04:14:30;127;;;186;;
54458;SDS011;40368;49.350;8.152;2022-08-19T04:15:44;123;;;137;;
54458;SDS011;40368;49.350;8.152;2022-08-19T04:17:35;118;;;132;;
54458;SDS011;40368;49.350;8.152;2022-08-19T04:18:50;121;;;135;;
54458;SDS011;40368;49.350;8.152;2022-08-19T04:20:42;120;;;147;;
54458;SDS011;40368;49.350;8.152;2022-08-19T04:22:32;123;;;159;;
54458;SDS011;40368;49.350;8.152;2022-08-19T04:23:46;124;;;162;;
54458;SDS011;40368;49.350;8.152;2022-08-19T04:25:38;123;;;141;;
54458;SDS011;40368;49.350;8.152;2022-08-19T04:26:51;128;;;158;;
54458;SDS011;40368;49.350;8.152;2022-08-19T04:28:42;116;;;130;;
54458;SDS011;40368;49.350;8.152;2022-08-19T04:30:37;114;;;141;;
54458;SDS011;40368;49.350;8.152;2022-08-19T04:31:48;120;;;150;;
54458;SDS011;40368;49.350;8.152;2022-08-19T04:33:39;126;;;141;;
54458;SDS011;40368;49.350;8.152;2022-08-19T04:34:53;122;;;136;;
54458;SDS011;40368;49.350;8.152;2022-08-19T04:36:44;114;;;129;;
54458;SDS011;40368;49.350;8.152;2022-08-19T04:39:41;122;;;156;;
54458;SDS011;40368;49.350;8.152;2022-08-19T04:41:33;119;;;147;;
54458;SDS011;40368;49.350;8.152;2022-08-19T04:42:47;124;;;143;;
54458;SDS011;40368;49.350;8.152;2022-08-19T04:44:38;114;;;144;;
54458;SDS011;40368;49.350;8.152;2022-08-19T04:45:52;115;;;146;;
54458;SDS011;40368;49.350;8.152;2022-08-19T04:47:43;109;;;123;;
54458;SDS011;40368;49.350;8.152;2022-08-19T04:49:34;116;;;155;;
54458;SDS011;40368;49.350;8.152;2022-08-19T04:50:48;110;;;142;;
54458;SDS011;40368;49.350;8.152;2022-08-19T04:52:40;111;;;133;;
54458;SDS011;40368;49.350;8.152;2022-08-19T04:53:54;107;;;164;;
54458;SDS011;40368;49.350;8.152;2022-08-19T04:55:45;105;;;118;;
54458;SDS011;40368;49.350;8.152;2022-08-19T04:57:36;110;;;131;;
54458;SDS011;40368;49.350;8.152;2022-08-19T04:58:50;108;;;123;;
54458;SDS011;40368;49.350;8.152;2022-08-19T05:00:41;109;;;122;;
54458;SDS011;40368;49.350;8.152;2022-08-19T05:02:33;109;;;122;;
54458;SDS011;40368;49.350;8.152;2022-08-19T05:03:47;110;;;142;;
54458;SDS011;40368;49.350;8.152;2022-08-19T05:05:39;108;;;132;;
54458;SDS011;40368;49.350;8.152;2022-08-19T05:06:52;109;;;132;;
54458;SDS011;40368;49.350;8.152;2022-08-19T05:08:43;102;;;114;;
54458;SDS011;40368;49.350;8.152;2022-08-19T05:10:36;117;;;153;;
54458;SDS011;40368;49.350;8.152;2022-08-19T05:11:49;114;;;146;;
54458;SDS011;40368;49.350;8.152;2022-08-19T05:13:40;114;;;127;;
54458;SDS011;40368;49.350;8.152;2022-08-19T05:15:31;111;;;124;;
54458;SDS011;40368;49.350;8.152;2022-08-19T05:16:45;110;;;135;;
54458;SDS011;40368;49.350;8.152;2022-08-19T05:18:36;117;;;180;;
54458;SDS011;40368;49.350;8.152;2022-08-19T05:19:50;107;;;127;;
54458;SDS011;40368;49.350;8.152;2022-08-19T05:21:42;106;;;126;;
54458;SDS011;40368;49.350;8.152;2022-08-19T05:23:33;107;;;120;;
54458;SDS011;40368;49.350;8.152;2022-08-19T05:24:47;103;;;132;;
54458;SDS011;40368;49.350;8.152;2022-08-19T05:26:39;103;;;117;;
54458;SDS011;40368;49.350;8.152;2022-08-19T05:27:52;112;;;125;;
54458;SDS011;40368;49.350;8.152;2022-08-19T05:29:43;104;;;148;;
54458;SDS011;40368;49.350;8.152;2022-08-19T05:31:35;101;;;120;;
54458;SDS011;40368;49.350;8.152;2022-08-19T05:32:49;100;;;135;;
54458;SDS011;40368;49.350;8.152;2022-08-19T05:34:40;101;;;153;;
54458;SDS011;40368;49.350;8.152;2022-08-19T05:36:33;97;;;113;;
54458;SDS011;40368;49.350;8.152;2022-08-19T05:39:29;106;;;124;;
54458;SDS011;40368;49.350;8.152;2022-08-19T05:40:42;99;;;120;;
54458;SDS011;40368;49.350;8.152;2022-08-19T05:42:33;102;;;123;;
54458;SDS011;40368;49.350;8.152;2022-08-19T05:43:49;101;;;122;;
54458;SDS011;40368;49.350;8.152;2022-08-19T05:45:39;102;;;115;;
54458;SDS011;40368;49.350;8.152;2022-08-19T05:46:53;97;;;124;;
54458;SDS011;40368;49.350;8.152;2022-08-19T05:48:44;102;;;135;;
54458;SDS011;40368;49.350;8.152;2022-08-19T05:50:35;91;;;111;;
54458;SDS011;40368;49.350;8.152;2022-08-19T05:51:49;96;;;121;;
54458;SDS011;40368;49.350;8.152;2022-08-19T05:53:41;98;;;133;;
54458;SDS011;40368;49.350;8.152;2022-08-19T05:55:32;90;;;122;;
54458;SDS011;40368;49.350;8.152;2022-08-19T05:56:46;96;;;114;;
54458;SDS011;40368;49.350;8.152;2022-08-19T05:58:38;96;;;144;;
54458;SDS011;40368;49.350;8.152;2022-08-19T05:59:51;85;;;113;;
54458;SDS011;40368;49.350;8.152;2022-08-19T06:01:43;93;;;110;;
54458;SDS011;40368;49.350;8.152;2022-08-19T06:03:34;89;;;117;;
54458;SDS011;40368;49.350;8.152;2022-08-19T06:04:48;88;;;124;;
54458;SDS011;40368;49.350;8.152;2022-08-19T06:06:39;89;;;105;;
54458;SDS011;40368;49.350;8.152;2022-08-19T06:07:53;81;;;96;;
54458;SDS011;40368;49.350;8.152;2022-08-19T06:09:44;79;;;110;;
54458;SDS011;40368;49.350;8.152;2022-08-19T06:11:36;91;;;136;;
54458;SDS011;40368;49.350;8.152;2022-08-19T06:12:50;82;;;148;;
54458;SDS011;40368;49.350;8.152;2022-08-19T06:14:41;93;;;108;;
54458;SDS011;40368;49.350;8.152;2022-08-19T06:16:32;79;;;115;;
54458;SDS011;40368;49.350;8.152;2022-08-19T06:17:46;77;;;99;;
54458;SDS011;40368;49.350;8.152;2022-08-19T06:19:37;82;;;119;;
54458;SDS011;40368;49.350;8.152;2022-08-19T06:20:51;81;;;95;;
54458;SDS011;40368;49.350;8.152;2022-08-19T06:22:44;81;;;105;;
54458;SDS011;40368;49.350;8.152;2022-08-19T06:24:34;78;;;109;;
54458;SDS011;40368;49.350;8.152;2022-08-19T06:25:48;76;;;84;;
54458;SDS011;40368;49.350;8.152;2022-08-19T06:27:39;80;;;99;;
54458;SDS011;40368;49.350;8.152;2022-08-19T06:29:30;82;;;108;;
54458;SDS011;40368;49.350;8.152;2022-08-19T06:30:44;85;;;123;;
54458;SDS011;40368;49.350;8.152;2022-08-19T06:32:35;86;;;103;;
54458;SDS011;40368;49.350;8.152;2022-08-19T06:33:50;81;;;90;;
54458;SDS011;40368;49.350;8.152;2022-08-19T06:35:41;78;;;94;;
54458;SDS011;40368;49.350;8.152;2022-08-19T06:37:32;81;;;109;;
54458;SDS011;40368;49.350;8.152;2022-08-19T06:40:29;85;;;109;;
54458;SDS011;40368;49.350;8.152;2022-08-19T06:41:44;84;;;121;;
54458;SDS011;40368;49.350;8.152;2022-08-19T06:43:34;77;;;86;;
54458;SDS011;40368;49.350;8.152;2022-08-19T06:44:49;80;;;107;;
54458;SDS011;40368;49.350;8.152;2022-08-19T06:46:40;81;;;113;;
54458;SDS011;40368;49.350;8.152;2022-08-19T06:48:31;76;;;91;;
54458;SDS011;40368;49.350;8.152;2022-08-19T06:49:45;76;;;85;;
54458;SDS011;40368;49.350;8.152;2022-08-19T06:51:36;85;;;100;;
54458;SDS011;40368;49.350;8.152;2022-08-19T06:52:50;81;;;91;;
54458;SDS011;40368;49.350;8.152;2022-08-19T06:54:42;85;;;117;;
54458;SDS011;40368;49.350;8.152;2022-08-19T06:56:33;84;;;107;;
54458;SDS011;40368;49.350;8.152;2022-08-19T06:57:47;83;;;100;;
54458;SDS011;40368;49.350;8.152;2022-08-19T06:59:38;84;;;112;;
54458;SDS011;40368;49.350;8.152;2022-08-19T07:00:52;80;;;117;;
54458;SDS011;40368;49.350;8.152;2022-08-19T07:02:43;76;;;105;;
54458;SDS011;40368;49.350;8.152;2022-08-19T07:04:35;79;;;103;;
54458;SDS011;40368;49.350;8.152;2022-08-19T07:05:49;86;;;111;;
54458;SDS011;40368;49.350;8.152;2022-08-19T07:07:40;86;;;117;;
54458;SDS011;40368;49.350;8.152;2022-08-19T07:09:31;79;;;104;;
54458;SDS011;40368;49.350;8.152;2022-08-19T07:10:45;80;;;96;;
54458;SDS011;40368;49.350;8.152;2022-08-19T07:12:36;78;;;92;;
54458;SDS011;40368;49.350;8.152;2022-08-19T07:13:50;85;;;116;;
54458;SDS011;40368;49.350;8.152;2022-08-19T07:15:42;79;;;95;;
54458;SDS011;40368;49.350;8.152;2022-08-19T07:17:33;80;;;93;;
54458;SDS011;40368;49.350;8.152;2022-08-19T07:18:47;79;;;105;;
54458;SDS011;40368;49.350;8.152;2022-08-19T07:20:38;81;;;99;;
54458;SDS011;40368;49.350;8.152;2022-08-19T07:21:53;75;;;103;;
54458;SDS011;40368;49.350;8.152;2022-08-19T07:23:44;73;;;130;;
54458;SDS011;40368;49.350;8.152;2022-08-19T07:25:35;75;;;103;;
54458;SDS011;40368;49.350;8.152;2022-08-19T07:26:49;75;;;84;;
54458;SDS011;40368;49.350;8.152;2022-08-19T07:28:40;75;;;84;;
54458;SDS011;40368;49.350;8.152;2022-08-19T07:30:31;78;;;124;;
54458;SDS011;40368;49.350;8.152;2022-08-19T07:31:45;80;;;100;;
54458;SDS011;40368;49.350;8.152;2022-08-19T07:32:23;77;;;93;;
54458;SDS011;40368;49.350;8.152;2022-08-19T07:33:37;79;;;99;;
54458;SDS011;40368;49.350;8.152;2022-08-19T07:34:51;75;;;125;;
54458;SDS011;40368;49.350;8.152;2022-08-19T07:36:42;75;;;84;;
54458;SDS011;40368;49.350;8.152;2022-08-19T07:38:33;71;;;97;;
54458;SDS011;40368;49.350;8.152;2022-08-19T07:39:39;79;;;100;;
54458;SDS011;40368;49.350;8.152;2022-08-19T07:41:30;71;;;86;;
54458;SDS011;40368;49.350;8.152;2022-08-19T07:42:44;77;;;95;;
54458;SDS011;40368;49.350;8.152;2022-08-19T07:44:36;74;;;88;;
54458;SDS011;40368;49.350;8.152;2022-08-19T07:45:50;78;;;87;;
54458;SDS011;40368;49.350;8.152;2022-08-19T07:47:41;77;;;112;;
54458;SDS011;40368;49.350;8.152;2022-08-19T07:49:32;76;;;104;;
54458;SDS011;40368;49.350;8.152;2022-08-19T07:50:46;70;;;94;;
54458;SDS011;40368;49.350;8.152;2022-08-19T07:52:38;72;;;106;;
54458;SDS011;40368;49.350;8.152;2022-08-19T07:53:53;68;;;117;;
54458;SDS011;40368;49.350;8.152;2022-08-19T07:55:43;68;;;105;;
54458;SDS011;40368;49.350;8.152;2022-08-19T07:57:34;78;;;120;;
54458;SDS011;40368;49.350;8.152;2022-08-19T07:58:49;65;;;84;;
54458;SDS011;40368;49.350;8.152;2022-08-19T08:00:39;74;;;85;;
54458;SDS011;40368;49.350;8.152;2022-08-19T08:01:53;72;;;91;;
54458;SDS011;40368;49.350;8.152;2022-08-19T08:03:45;68;;;87;;
54458;SDS011;40368;49.350;8.152;2022-08-19T08:05:35;78;;;87;;
54458;SDS011;40368;49.350;8.152;2022-08-19T08:06:50;64;;;75;;
54458;SDS011;40368;49.350;8.152;2022-08-19T08:08:41;64;;;81;;
54458;SDS011;40368;49.350;8.152;2022-08-19T08:10:32;62;;;84;;
54458;SDS011;40368;49.350;8.152;2022-08-19T08:11:48;72;;;104;;
54458;SDS011;40368;49.350;8.152;2022-08-19T08:13:37;66;;;91;;
54458;SDS011;40368;49.350;8.152;2022-08-19T08:14:52;71;;;107;;
54458;SDS011;40368;49.350;8.152;2022-08-19T08:16:43;68;;;109;;
54458;SDS011;40368;49.350;8.152;2022-08-19T08:18:34;62;;;77;;
54458;SDS011;40368;49.350;8.152;2022-08-19T08:19:48;65;;;87;;
54458;SDS011;40368;49.350;8.152;2022-08-19T08:21:39;66;;;132;;
54458;SDS011;40368;49.350;8.152;2022-08-19T08:22:53;68;;;76;;
54458;SDS011;40368;49.350;8.152;2022-08-19T08:24:44;59;;;92;;
54458;SDS011;40368;49.350;8.152;2022-08-19T08:26:36;55;;;61;;
54458;SDS011;40368;49.350;8.152;2022-08-19T08:27:50;65;;;80;;
54458;SDS011;40368;49.350;8.152;2022-08-19T08:29:41;62;;;80;;
54458;SDS011;40368;49.350;8.152;2022-08-19T08:31:32;61;;;71;;
54458;SDS011;40368;49.350;8.152;2022-08-19T08:32:46;58;;;112;;
54458;SDS011;40368;49.350;8.152;2022-08-19T08:34:37;49;;;80;;
54458;SDS011;40368;49.350;8.152;2022-08-19T08:35:52;54;;;68;;
54458;SDS011;40368;49.350;8.152;2022-08-19T08:37:43;49;;;103;;
54458;SDS011;40368;49.350;8.152;2022-08-19T08:39:34;49;;;77;;
54458;SDS011;40368;49.350;8.152;2022-08-19T08:40:42;51;;;70;;
54458;SDS011;40368;49.350;8.152;2022-08-19T08:42:32;56;;;80;;
54458;SDS011;40368;49.350;8.152;2022-08-19T08:43:46;63;;;100;;
54458;SDS011;40368;49.350;8.152;2022-08-19T08:45:38;52;;;77;;
54458;SDS011;40368;49.350;8.152;2022-08-19T08:46:51;51;;;70;;
54458;SDS011;40368;49.350;8.152;2022-08-19T08:48:44;49;;;68;;
54458;SDS011;40368;49.350;8.152;2022-08-19T08:50:33;47;;;63;;
54458;SDS011;40368;49.350;8.152;2022-08-19T08:51:48;47;;;61;;
54458;SDS011;40368;49.350;8.152;2022-08-19T08:53:38;46;;;51;;
54458;SDS011;40368;49.350;8.152;2022-08-19T08:54:53;49;;;70;;
54458;SDS011;40368;49.350;8.152;2022-08-19T08:56:44;44;;;56;;
54458;SDS011;40368;49.350;8.152;2022-08-19T08:58:36;43;;;59;;
54458;SDS011;40368;49.350;8.152;2022-08-19T08:59:49;43;;;50;;
54458;SDS011;40368;49.350;8.152;2022-08-19T09:01:40;45;;;84;;
54458;SDS011;40368;49.350;8.152;2022-08-19T09:03:31;49;;;75;;
54458;SDS011;40368;49.350;8.152;2022-08-19T09:04:45;46;;;90;;
54458;SDS011;40368;49.350;8.152;2022-08-19T09:05:23;44;;;50;;
54458;SDS011;40368;49.350;8.152;2022-08-19T09:06:38;54;;;77;;
54458;SDS011;40368;49.350;8.152;2022-08-19T09:07:53;49;;;66;;
54458;SDS011;40368;49.350;8.152;2022-08-19T09:09:43;45;;;72;;
54458;SDS011;40368;49.350;8.152;2022-08-19T09:11:37;46;;;59;;
54458;SDS011;40368;49.350;8.152;2022-08-19T09:12:50;57;;;64;;
54458;SDS011;40368;49.350;8.152;2022-08-19T09:14:40;46;;;51;;
54458;SDS011;40368;49.350;8.152;2022-08-19T09:15:55;45;;;65;;
54458;SDS011;40368;49.350;8.152;2022-08-19T09:17:44;47;;;73;;
54458;SDS011;40368;49.350;8.152;2022-08-19T09:19:35;50;;;66;;
54458;SDS011;40368;49.350;8.152;2022-08-19T09:20:49;61;;;91;;
54458;SDS011;40368;49.350;8.152;2022-08-19T09:22:41;59;;;75;;
54458;SDS011;40368;49.350;8.152;2022-08-19T09:24:32;61;;;100;;
54458;SDS011;40368;49.350;8.152;2022-08-19T09:25:45;51;;;59;;
54458;SDS011;40368;49.350;8.152;2022-08-19T09:27:37;53;;;61;;
54458;SDS011;40368;49.350;8.152;2022-08-19T09:28:51;51;;;63;;
54458;SDS011;40368;49.350;8.152;2022-08-19T09:30:42;65;;;90;;
54458;SDS011;40368;49.350;8.152;2022-08-19T09:32:33;58;;;82;;
54458;SDS011;40368;49.350;8.152;2022-08-19T09:33:47;56;;;79;;
54458;SDS011;40368;49.350;8.152;2022-08-19T09:35:38;58;;;96;;
54458;SDS011;40368;49.350;8.152;2022-08-19T09:36:52;51;;;76;;
54458;SDS011;40368;49.350;8.152;2022-08-19T09:38:44;48;;;83;;
54458;SDS011;40368;49.350;8.152;2022-08-19T09:41:41;44;;;53;;
54458;SDS011;40368;49.350;8.152;2022-08-19T09:43:32;47;;;59;;
54458;SDS011;40368;49.350;8.152;2022-08-19T09:44:46;47;;;61;;
54458;SDS011;40368;49.350;8.152;2022-08-19T09:46:37;48;;;78;;
54458;SDS011;40368;49.350;8.152;2022-08-19T09:47:52;51;;;84;;
54458;SDS011;40368;49.350;8.152;2022-08-19T09:49:43;43;;;92;;
54458;SDS011;40368;49.350;8.152;2022-08-19T09:51:34;40;;;50;;
54458;SDS011;40368;49.350;8.152;2022-08-19T09:52:48;45;;;56;;
54458;SDS011;40368;49.350;8.152;2022-08-19T09:54:39;46;;;52;;
54458;SDS011;40368;49.350;8.152;2022-08-19T09:56:30;46;;;69;;
54458;SDS011;40368;49.350;8.152;2022-08-19T09:57:44;41;;;74;;
54458;SDS011;40368;49.350;8.152;2022-08-19T09:59:36;42;;;52;;
54458;SDS011;40368;49.350;8.152;2022-08-19T10:00:50;39;;;133;;
54458;SDS011;40368;49.350;8.152;2022-08-19T10:02:41;38;;;58;;
54458;SDS011;40368;49.350;8.152;2022-08-19T10:04:32;43;;;53;;
54458;SDS011;40368;49.350;8.152;2022-08-19T10:05:47;36;;;63;;
54458;SDS011;40368;49.350;8.152;2022-08-19T10:07:37;42;;;70;;
54458;SDS011;40368;49.350;8.152;2022-08-19T10:08:52;39;;;45;;